sensor_id;sensor_type;location;lat;lon;timestamp;temperature;humidity
68922;DHT22;55959;51.244;5.724;2022-12-07T00:01:40;8.80;76.00
68922;DHT22;55959;51.244;5.724;2022-12-07T00:04:11;8.80;76.00
68922;DHT22;55959;51.244;5.724;2022-12-07T00:06:40;8.80;76.00
68922;DHT22;55959;51.244;5.724;2022-12-07T00:09:15;8.80;76.00
68922;DHT22;55959;51.244;5.724;2022-12-07T00:11:43;8.80;75.90
68922;DHT22;55959;51.244;5.724;2022-12-07T00:14:15;8.70;75.90
68922;DHT22;55959;51.244;5.724;2022-12-07T00:16:43;8.70;75.90
68922;DHT22;55959;51.244;5.724;2022-12-07T00:19:11;8.70;76.00
68922;DHT22;55959;51.244;5.724;2022-12-07T00:21:38;8.60;76.00
68922;DHT22;55959;51.244;5.724;2022-12-07T00:24:05;8.70;76.10
68922;DHT22;55959;51.244;5.724;2022-12-07T00:26:36;8.60;76.20
68922;DHT22;55959;51.244;5.724;2022-12-07T00:29:18;8.60;76.30
68922;DHT22;55959;51.244;5.724;2022-12-07T00:31:45;8.60;76.40
68922;DHT22;55959;51.244;5.724;2022-12-07T00:34:19;8.60;76.40
68922;DHT22;55959;51.244;5.724;2022-12-07T00:36:46;8.60;76.60
68922;DHT22;55959;51.244;5.724;2022-12-07T00:39:12;8.60;76.60
68922;DHT22;55959;51.244;5.724;2022-12-07T00:41:38;8.50;76.60
68922;DHT22;55959;51.244;5.724;2022-12-07T00:44:03;8.50;76.60
68922;DHT22;55959;51.244;5.724;2022-12-07T00:46:29;8.50;76.70
68922;DHT22;55959;51.244;5.724;2022-12-07T00:48:55;8.50;76.70
68922;DHT22;55959;51.244;5.724;2022-12-07T00:51:23;8.50;76.70
68922;DHT22;55959;51.244;5.724;2022-12-07T00:53:49;8.50;77.60
68922;DHT22;55959;51.244;5.724;2022-12-07T00:56:21;8.50;76.80
68922;DHT22;55959;51.244;5.724;2022-12-07T00:58:59;8.50;76.80
68922;DHT22;55959;51.244;5.724;2022-12-07T01:01:28;8.50;76.90
68922;DHT22;55959;51.244;5.724;2022-12-07T01:03:55;8.50;76.80
68922;DHT22;55959;51.244;5.724;2022-12-07T01:06:25;8.40;76.80
68922;DHT22;55959;51.244;5.724;2022-12-07T01:08:52;8.40;76.80
68922;DHT22;55959;51.244;5.724;2022-12-07T01:11:22;8.40;76.90
68922;DHT22;55959;51.244;5.724;2022-12-07T01:13:54;8.40;77.00
68922;DHT22;55959;51.244;5.724;2022-12-07T01:16:22;8.40;77.00
68922;DHT22;55959;51.244;5.724;2022-12-07T01:18:52;8.40;77.00
68922;DHT22;55959;51.244;5.724;2022-12-07T01:21:21;8.40;77.00
68922;DHT22;55959;51.244;5.724;2022-12-07T01:23:49;8.30;76.80
68922;DHT22;55959;51.244;5.724;2022-12-07T01:26:18;8.40;76.90
68922;DHT22;55959;51.244;5.724;2022-12-07T01:28:45;8.30;76.80
68922;DHT22;55959;51.244;5.724;2022-12-07T01:31:21;8.30;76.80
68922;DHT22;55959;51.244;5.724;2022-12-07T01:33:50;8.30;77.00
68922;DHT22;55959;51.244;5.724;2022-12-07T01:36:26;8.30;76.90
68922;DHT22;55959;51.244;5.724;2022-12-07T01:38:58;8.30;76.90
68922;DHT22;55959;51.244;5.724;2022-12-07T01:41:28;8.30;76.90
68922;DHT22;55959;51.244;5.724;2022-12-07T01:44:12;8.20;76.90
68922;DHT22;55959;51.244;5.724;2022-12-07T01:46:47;8.30;77.00
68922;DHT22;55959;51.244;5.724;2022-12-07T01:55:12;8.20;77.20
68922;DHT22;55959;51.244;5.724;2022-12-07T01:57:49;8.10;77.20
68922;DHT22;55959;51.244;5.724;2022-12-07T02:00:17;8.10;77.20
68922;DHT22;55959;51.244;5.724;2022-12-07T02:02:54;8.10;77.20
68922;DHT22;55959;51.244;5.724;2022-12-07T02:05:23;8.20;77.40
68922;DHT22;55959;51.244;5.724;2022-12-07T02:07:51;8.10;77.40
68922;DHT22;55959;51.244;5.724;2022-12-07T02:10:24;8.20;77.50
68922;DHT22;55959;51.244;5.724;2022-12-07T02:13:01;8.10;77.50
68922;DHT22;55959;51.244;5.724;2022-12-07T02:18:59;8.20;77.80
68922;DHT22;55959;51.244;5.724;2022-12-07T02:28:11;8.10;77.80
68922;DHT22;55959;51.244;5.724;2022-12-07T02:30:43;8.10;77.90
68922;DHT22;55959;51.244;5.724;2022-12-07T02:33:18;8.10;77.90
68922;DHT22;55959;51.244;5.724;2022-12-07T02:36:11;8.10;77.90
68922;DHT22;55959;51.244;5.724;2022-12-07T02:38:53;8.10;78.00
68922;DHT22;55959;51.244;5.724;2022-12-07T02:41:28;8.10;77.90
68922;DHT22;55959;51.244;5.724;2022-12-07T02:44:19;8.10;77.90
68922;DHT22;55959;51.244;5.724;2022-12-07T02:46:58;8.10;77.90
68922;DHT22;55959;51.244;5.724;2022-12-07T02:49:27;8.10;77.90
68922;DHT22;55959;51.244;5.724;2022-12-07T02:51:54;8.10;77.90
68922;DHT22;55959;51.244;5.724;2022-12-07T02:54:21;8.10;78.00
68922;DHT22;55959;51.244;5.724;2022-12-07T02:56:57;8.10;78.00
68922;DHT22;55959;51.244;5.724;2022-12-07T02:59:56;8.10;78.20
68922;DHT22;55959;51.244;5.724;2022-12-07T03:11:10;8.10;78.30
68922;DHT22;55959;51.244;5.724;2022-12-07T03:13:59;8.10;78.40
68922;DHT22;55959;51.244;5.724;2022-12-07T03:16:35;8.10;78.40
68922;DHT22;55959;51.244;5.724;2022-12-07T03:19:17;8.10;78.40
68922;DHT22;55959;51.244;5.724;2022-12-07T03:21:55;8.10;78.50
68922;DHT22;55959;51.244;5.724;2022-12-07T03:24:27;8.10;78.50
68922;DHT22;55959;51.244;5.724;2022-12-07T03:27:13;8.10;78.60
68922;DHT22;55959;51.244;5.724;2022-12-07T03:29:47;8.10;78.60
68922;DHT22;55959;51.244;5.724;2022-12-07T03:32:30;8.10;78.40
68922;DHT22;55959;51.244;5.724;2022-12-07T03:37:52;8.10;78.20
68922;DHT22;55959;51.244;5.724;2022-12-07T03:40:39;8.10;78.20
68922;DHT22;55959;51.244;5.724;2022-12-07T03:43:08;8.10;78.10
68922;DHT22;55959;51.244;5.724;2022-12-07T03:45:41;8.10;78.10
68922;DHT22;55959;51.244;5.724;2022-12-07T03:50:52;8.10;78.10
68922;DHT22;55959;51.244;5.724;2022-12-07T03:53:25;8.10;78.10
68922;DHT22;55959;51.244;5.724;2022-12-07T03:55:56;8.00;78.00
68922;DHT22;55959;51.244;5.724;2022-12-07T03:58:23;8.10;78.20
68922;DHT22;55959;51.244;5.724;2022-12-07T04:00:50;8.10;78.20
68922;DHT22;55959;51.244;5.724;2022-12-07T04:03:16;8.10;78.20
68922;DHT22;55959;51.244;5.724;2022-12-07T04:05:43;8.10;78.20
68922;DHT22;55959;51.244;5.724;2022-12-07T04:08:08;8.10;78.20
68922;DHT22;55959;51.244;5.724;2022-12-07T04:10:35;8.10;78.20
68922;DHT22;55959;51.244;5.724;2022-12-07T04:13:00;8.10;78.20
68922;DHT22;55959;51.244;5.724;2022-12-07T04:15:26;8.10;78.20
68922;DHT22;55959;51.244;5.724;2022-12-07T04:17:52;8.10;78.30
68922;DHT22;55959;51.244;5.724;2022-12-07T04:20:19;8.10;78.20
68922;DHT22;55959;51.244;5.724;2022-12-07T04:22:45;8.10;78.30
68922;DHT22;55959;51.244;5.724;2022-12-07T04:25:10;8.10;78.30
68922;DHT22;55959;51.244;5.724;2022-12-07T04:27:36;8.10;78.40
68922;DHT22;55959;51.244;5.724;2022-12-07T04:30:02;8.10;78.40
68922;DHT22;55959;51.244;5.724;2022-12-07T04:32:29;8.10;78.40
68922;DHT22;55959;51.244;5.724;2022-12-07T04:34:54;8.10;78.40
68922;DHT22;55959;51.244;5.724;2022-12-07T04:37:20;8.10;78.50
68922;DHT22;55959;51.244;5.724;2022-12-07T04:39:46;8.00;78.50
68922;DHT22;55959;51.244;5.724;2022-12-07T04:42:12;8.10;78.60
68922;DHT22;55959;51.244;5.724;2022-12-07T04:44:38;8.10;78.60
68922;DHT22;55959;51.244;5.724;2022-12-07T04:47:04;8.10;79.60
68922;DHT22;55959;51.244;5.724;2022-12-07T04:49:30;8.10;78.70
68922;DHT22;55959;51.244;5.724;2022-12-07T04:51:56;8.10;78.80
68922;DHT22;55959;51.244;5.724;2022-12-07T04:54:22;8.10;78.80
68922;DHT22;55959;51.244;5.724;2022-12-07T04:56:49;8.10;78.80
68922;DHT22;55959;51.244;5.724;2022-12-07T04:59:15;8.10;78.80
68922;DHT22;55959;51.244;5.724;2022-12-07T05:01:42;8.10;78.90
68922;DHT22;55959;51.244;5.724;2022-12-07T05:04:08;8.10;78.80
68922;DHT22;55959;51.244;5.724;2022-12-07T05:06:34;8.10;78.80
68922;DHT22;55959;51.244;5.724;2022-12-07T05:09:00;8.20;78.80
68922;DHT22;55959;51.244;5.724;2022-12-07T05:11:26;8.20;78.80
68922;DHT22;55959;51.244;5.724;2022-12-07T05:14:23;8.20;78.80
68922;DHT22;55959;51.244;5.724;2022-12-07T05:16:50;8.20;78.80
68922;DHT22;55959;51.244;5.724;2022-12-07T05:19:17;8.20;79.60
68922;DHT22;55959;51.244;5.724;2022-12-07T05:21:44;8.20;78.70
68922;DHT22;55959;51.244;5.724;2022-12-07T05:24:12;8.20;78.70
68922;DHT22;55959;51.244;5.724;2022-12-07T05:26:38;8.20;78.80
68922;DHT22;55959;51.244;5.724;2022-12-07T05:29:04;8.20;78.80
68922;DHT22;55959;51.244;5.724;2022-12-07T05:31:31;8.20;78.80
68922;DHT22;55959;51.244;5.724;2022-12-07T05:33:57;8.20;78.90
68922;DHT22;55959;51.244;5.724;2022-12-07T05:36:23;8.20;78.80
68922;DHT22;55959;51.244;5.724;2022-12-07T05:38:49;8.20;78.90
68922;DHT22;55959;51.244;5.724;2022-12-07T05:41:17;8.20;78.90
68922;DHT22;55959;51.244;5.724;2022-12-07T05:44:02;8.20;78.80
68922;DHT22;55959;51.244;5.724;2022-12-07T05:46:28;8.20;78.80
68922;DHT22;55959;51.244;5.724;2022-12-07T05:48:54;8.30;78.80
68922;DHT22;55959;51.244;5.724;2022-12-07T05:51:20;8.30;78.80
68922;DHT22;55959;51.244;5.724;2022-12-07T05:53:46;8.30;78.80
68922;DHT22;55959;51.244;5.724;2022-12-07T05:56:12;8.30;78.70
68922;DHT22;55959;51.244;5.724;2022-12-07T05:58:37;8.30;78.80
68922;DHT22;55959;51.244;5.724;2022-12-07T06:01:21;8.30;78.70
68922;DHT22;55959;51.244;5.724;2022-12-07T06:03:47;8.30;78.80
68922;DHT22;55959;51.244;5.724;2022-12-07T06:06:13;8.30;78.80
68922;DHT22;55959;51.244;5.724;2022-12-07T06:08:41;8.30;78.80
68922;DHT22;55959;51.244;5.724;2022-12-07T06:11:07;8.30;78.80
68922;DHT22;55959;51.244;5.724;2022-12-07T06:13:51;8.30;78.80
68922;DHT22;55959;51.244;5.724;2022-12-07T06:16:17;8.30;78.80
68922;DHT22;55959;51.244;5.724;2022-12-07T06:18:43;8.30;79.00
68922;DHT22;55959;51.244;5.724;2022-12-07T06:21:08;8.30;78.90
68922;DHT22;55959;51.244;5.724;2022-12-07T06:23:34;8.30;78.90
68922;DHT22;55959;51.244;5.724;2022-12-07T06:26:00;8.30;78.80
68922;DHT22;55959;51.244;5.724;2022-12-07T06:28:25;8.30;78.80
68922;DHT22;55959;51.244;5.724;2022-12-07T06:31:01;8.30;78.80
68922;DHT22;55959;51.244;5.724;2022-12-07T06:33:28;8.30;78.70
68922;DHT22;55959;51.244;5.724;2022-12-07T06:35:54;8.30;78.60
68922;DHT22;55959;51.244;5.724;2022-12-07T06:38:20;8.30;78.60
68922;DHT22;55959;51.244;5.724;2022-12-07T06:40:46;8.30;78.50
68922;DHT22;55959;51.244;5.724;2022-12-07T06:43:12;8.30;78.40
68922;DHT22;55959;51.244;5.724;2022-12-07T06:45:38;8.40;78.30
68922;DHT22;55959;51.244;5.724;2022-12-07T06:48:04;8.40;78.20
68922;DHT22;55959;51.244;5.724;2022-12-07T06:50:29;8.40;78.10
68922;DHT22;55959;51.244;5.724;2022-12-07T06:52:55;8.40;78.00
68922;DHT22;55959;51.244;5.724;2022-12-07T06:55:21;8.30;78.00
68922;DHT22;55959;51.244;5.724;2022-12-07T06:57:46;8.30;77.90
68922;DHT22;55959;51.244;5.724;2022-12-07T07:00:12;8.40;78.00
68922;DHT22;55959;51.244;5.724;2022-12-07T07:02:39;8.30;77.80
68922;DHT22;55959;51.244;5.724;2022-12-07T07:05:04;8.30;77.80
68922;DHT22;55959;51.244;5.724;2022-12-07T07:07:30;8.30;77.70
68922;DHT22;55959;51.244;5.724;2022-12-07T07:09:56;8.30;77.70
68922;DHT22;55959;51.244;5.724;2022-12-07T07:12:22;8.30;77.60
68922;DHT22;55959;51.244;5.724;2022-12-07T07:14:47;8.30;77.60
68922;DHT22;55959;51.244;5.724;2022-12-07T07:17:13;8.30;77.40
68922;DHT22;55959;51.244;5.724;2022-12-07T07:19:39;8.30;77.40
68922;DHT22;55959;51.244;5.724;2022-12-07T07:22:05;8.30;77.20
68922;DHT22;55959;51.244;5.724;2022-12-07T07:24:30;8.30;77.20
68922;DHT22;55959;51.244;5.724;2022-12-07T07:26:56;8.30;77.10
68922;DHT22;55959;51.244;5.724;2022-12-07T07:29:22;8.20;77.00
68922;DHT22;55959;51.244;5.724;2022-12-07T07:31:48;8.20;77.00
68922;DHT22;55959;51.244;5.724;2022-12-07T07:34:13;8.20;77.00
68922;DHT22;55959;51.244;5.724;2022-12-07T07:36:39;8.20;77.00
68922;DHT22;55959;51.244;5.724;2022-12-07T07:39:05;8.20;77.10
68922;DHT22;55959;51.244;5.724;2022-12-07T07:41:31;8.20;77.10
68922;DHT22;55959;51.244;5.724;2022-12-07T07:43:57;8.20;77.20
68922;DHT22;55959;51.244;5.724;2022-12-07T07:46:23;8.20;77.20
68922;DHT22;55959;51.244;5.724;2022-12-07T07:48:48;8.20;77.20
68922;DHT22;55959;51.244;5.724;2022-12-07T07:51:14;8.20;77.30
68922;DHT22;55959;51.244;5.724;2022-12-07T07:53:40;8.20;77.20
68922;DHT22;55959;51.244;5.724;2022-12-07T07:56:05;8.20;77.30
68922;DHT22;55959;51.244;5.724;2022-12-07T07:58:31;8.20;77.30
68922;DHT22;55959;51.244;5.724;2022-12-07T08:01:02;8.10;77.30
68922;DHT22;55959;51.244;5.724;2022-12-07T08:03:29;8.10;77.40
68922;DHT22;55959;51.244;5.724;2022-12-07T08:05:54;8.10;77.40
68922;DHT22;55959;51.244;5.724;2022-12-07T08:08:20;8.10;77.60
68922;DHT22;55959;51.244;5.724;2022-12-07T08:10:46;8.10;77.60
68922;DHT22;55959;51.244;5.724;2022-12-07T08:13:11;8.10;77.70
68922;DHT22;55959;51.244;5.724;2022-12-07T08:15:43;8.10;77.70
68922;DHT22;55959;51.244;5.724;2022-12-07T08:18:10;8.00;77.70
68922;DHT22;55959;51.244;5.724;2022-12-07T08:20:37;8.10;77.80
68922;DHT22;55959;51.244;5.724;2022-12-07T08:23:03;8.10;77.80
68922;DHT22;55959;51.244;5.724;2022-12-07T08:25:29;8.00;77.80
68922;DHT22;55959;51.244;5.724;2022-12-07T08:27:55;8.00;77.80
68922;DHT22;55959;51.244;5.724;2022-12-07T08:30:21;8.00;77.80
68922;DHT22;55959;51.244;5.724;2022-12-07T08:32:48;8.00;77.90
68922;DHT22;55959;51.244;5.724;2022-12-07T08:35:14;8.00;78.00
68922;DHT22;55959;51.244;5.724;2022-12-07T08:37:40;8.00;78.00
68922;DHT22;55959;51.244;5.724;2022-12-07T08:40:08;8.00;77.90
68922;DHT22;55959;51.244;5.724;2022-12-07T08:42:34;8.00;78.00
68922;DHT22;55959;51.244;5.724;2022-12-07T08:45:07;8.00;78.00
68922;DHT22;55959;51.244;5.724;2022-12-07T08:47:37;8.00;78.10
68922;DHT22;55959;51.244;5.724;2022-12-07T08:50:07;8.00;78.20
68922;DHT22;55959;51.244;5.724;2022-12-07T08:52:34;8.00;78.30
68922;DHT22;55959;51.244;5.724;2022-12-07T08:55:01;8.00;78.20
68922;DHT22;55959;51.244;5.724;2022-12-07T08:57:29;8.00;78.20
68922;DHT22;55959;51.244;5.724;2022-12-07T08:59:55;8.00;78.40
68922;DHT22;55959;51.244;5.724;2022-12-07T09:02:21;8.10;78.50
68922;DHT22;55959;51.244;5.724;2022-12-07T09:04:47;8.10;78.50
68922;DHT22;55959;51.244;5.724;2022-12-07T09:07:12;8.10;78.60
68922;DHT22;55959;51.244;5.724;2022-12-07T09:09:38;8.10;78.60
68922;DHT22;55959;51.244;5.724;2022-12-07T09:12:04;8.10;78.60
68922;DHT22;55959;51.244;5.724;2022-12-07T09:14:30;8.10;78.60
68922;DHT22;55959;51.244;5.724;2022-12-07T09:17:05;8.20;78.60
68922;DHT22;55959;51.244;5.724;2022-12-07T09:19:32;8.20;78.80
68922;DHT22;55959;51.244;5.724;2022-12-07T09:21:58;8.20;78.50
68922;DHT22;55959;51.244;5.724;2022-12-07T09:24:23;8.20;78.40
68922;DHT22;55959;51.244;5.724;2022-12-07T09:26:49;8.20;78.40
68922;DHT22;55959;51.244;5.724;2022-12-07T09:29:15;8.20;78.40
68922;DHT22;55959;51.244;5.724;2022-12-07T09:31:40;8.20;78.40
68922;DHT22;55959;51.244;5.724;2022-12-07T09:34:06;8.20;78.40
68922;DHT22;55959;51.244;5.724;2022-12-07T09:36:32;8.20;78.40
68922;DHT22;55959;51.244;5.724;2022-12-07T09:38:58;8.20;78.50
68922;DHT22;55959;51.244;5.724;2022-12-07T09:41:26;8.30;78.70
68922;DHT22;55959;51.244;5.724;2022-12-07T09:43:58;8.30;78.80
68922;DHT22;55959;51.244;5.724;2022-12-07T09:46:39;8.30;78.90
68922;DHT22;55959;51.244;5.724;2022-12-07T09:49:17;8.40;79.00
68922;DHT22;55959;51.244;5.724;2022-12-07T09:51:44;8.40;79.00
68922;DHT22;55959;51.244;5.724;2022-12-07T09:54:15;8.40;79.00
68922;DHT22;55959;51.244;5.724;2022-12-07T09:56:42;8.50;79.10
68922;DHT22;55959;51.244;5.724;2022-12-07T09:59:13;8.50;79.00
68922;DHT22;55959;51.244;5.724;2022-12-07T10:01:44;8.50;78.90
68922;DHT22;55959;51.244;5.724;2022-12-07T10:04:19;8.60;78.80
68922;DHT22;55959;51.244;5.724;2022-12-07T10:06:46;8.60;78.80
68922;DHT22;55959;51.244;5.724;2022-12-07T10:09:17;8.60;78.90
68922;DHT22;55959;51.244;5.724;2022-12-07T10:14:30;8.70;79.00
68922;DHT22;55959;51.244;5.724;2022-12-07T10:16:57;8.70;78.90
68922;DHT22;55959;51.244;5.724;2022-12-07T10:19:28;8.70;78.80
68922;DHT22;55959;51.244;5.724;2022-12-07T10:22:12;8.70;78.80
68922;DHT22;55959;51.244;5.724;2022-12-07T10:24:40;8.80;78.80
68922;DHT22;55959;51.244;5.724;2022-12-07T10:27:31;8.80;78.70
68922;DHT22;55959;51.244;5.724;2022-12-07T10:29:58;8.80;78.80
68922;DHT22;55959;51.244;5.724;2022-12-07T10:32:35;8.90;78.70
68922;DHT22;55959;51.244;5.724;2022-12-07T10:37:55;8.90;78.40
68922;DHT22;55959;51.244;5.724;2022-12-07T10:46:06;9.00;78.40
68922;DHT22;55959;51.244;5.724;2022-12-07T11:03:53;9.10;78.10
68922;DHT22;55959;51.244;5.724;2022-12-07T11:06:34;9.20;78.20
68922;DHT22;55959;51.244;5.724;2022-12-07T11:12:13;9.20;78.20
68922;DHT22;55959;51.244;5.724;2022-12-07T11:15:42;9.20;78.00
68922;DHT22;55959;51.244;5.724;2022-12-07T11:23:43;9.30;78.20
68922;DHT22;55959;51.244;5.724;2022-12-07T11:38:50;9.50;77.30
68922;DHT22;55959;51.244;5.724;2022-12-07T11:41:24;9.60;77.30
68922;DHT22;55959;51.244;5.724;2022-12-07T11:52:02;9.70;76.60
68922;DHT22;55959;51.244;5.724;2022-12-07T11:54:34;9.70;77.40
68922;DHT22;55959;51.244;5.724;2022-12-07T11:57:13;9.70;76.60
68922;DHT22;55959;51.244;5.724;2022-12-07T11:59:50;9.80;76.70
68922;DHT22;55959;51.244;5.724;2022-12-07T12:02:26;9.80;76.60
68922;DHT22;55959;51.244;5.724;2022-12-07T12:07:39;9.90;76.50
68922;DHT22;55959;51.244;5.724;2022-12-07T12:19:03;10.10;75.90
68922;DHT22;55959;51.244;5.724;2022-12-07T12:21:37;10.10;75.50
68922;DHT22;55959;51.244;5.724;2022-12-07T12:24:11;10.20;75.50
68922;DHT22;55959;51.244;5.724;2022-12-07T12:27:02;10.20;75.30
68922;DHT22;55959;51.244;5.724;2022-12-07T12:29:37;10.20;75.20
68922;DHT22;55959;51.244;5.724;2022-12-07T12:42:47;10.40;74.40
68922;DHT22;55959;51.244;5.724;2022-12-07T12:53:22;10.40;73.80
68922;DHT22;55959;51.244;5.724;2022-12-07T12:56:02;10.40;73.40
68922;DHT22;55959;51.244;5.724;2022-12-07T12:58:35;10.40;73.20
68922;DHT22;55959;51.244;5.724;2022-12-07T13:04:01;10.40;73.60
68922;DHT22;55959;51.244;5.724;2022-12-07T13:06:35;10.40;73.60
68922;DHT22;55959;51.244;5.724;2022-12-07T13:09:03;10.40;73.80
68922;DHT22;55959;51.244;5.724;2022-12-07T13:11:40;10.40;73.60
68922;DHT22;55959;51.244;5.724;2022-12-07T13:20:58;10.30;73.30
68922;DHT22;55959;51.244;5.724;2022-12-07T13:23:29;10.20;73.30
68922;DHT22;55959;51.244;5.724;2022-12-07T13:28:38;10.10;73.70
68922;DHT22;55959;51.244;5.724;2022-12-07T13:31:14;10.10;74.10
68922;DHT22;55959;51.244;5.724;2022-12-07T13:33:46;10.00;74.40
68922;DHT22;55959;51.244;5.724;2022-12-07T13:36:37;10.10;74.90
68922;DHT22;55959;51.244;5.724;2022-12-07T13:41:42;10.00;75.10
68922;DHT22;55959;51.244;5.724;2022-12-07T13:44:16;10.10;75.30
68922;DHT22;55959;51.244;5.724;2022-12-07T13:47:16;10.10;75.30
68922;DHT22;55959;51.244;5.724;2022-12-07T13:49:54;10.10;75.50
68922;DHT22;55959;51.244;5.724;2022-12-07T13:52:27;10.10;75.70
68922;DHT22;55959;51.244;5.724;2022-12-07T13:57:25;10.10;75.30
68922;DHT22;55959;51.244;5.724;2022-12-07T13:59:52;10.10;75.10
68922;DHT22;55959;51.244;5.724;2022-12-07T14:02:26;10.10;75.10
68922;DHT22;55959;51.244;5.724;2022-12-07T14:05:23;10.10;75.00
68922;DHT22;55959;51.244;5.724;2022-12-07T14:07:57;10.10;75.00
68922;DHT22;55959;51.244;5.724;2022-12-07T14:10:35;10.10;75.10
68922;DHT22;55959;51.244;5.724;2022-12-07T14:13:22;10.20;75.40
68922;DHT22;55959;51.244;5.724;2022-12-07T14:15:57;10.20;75.30
68922;DHT22;55959;51.244;5.724;2022-12-07T14:18:36;10.20;75.20
68922;DHT22;55959;51.244;5.724;2022-12-07T14:21:25;10.20;75.20
68922;DHT22;55959;51.244;5.724;2022-12-07T14:24:14;10.20;74.90
68922;DHT22;55959;51.244;5.724;2022-12-07T14:26:43;10.20;74.80
68922;DHT22;55959;51.244;5.724;2022-12-07T14:31:57;10.30;74.50
68922;DHT22;55959;51.244;5.724;2022-12-07T14:34:24;10.20;74.40
68922;DHT22;55959;51.244;5.724;2022-12-07T14:36:51;10.30;74.40
68922;DHT22;55959;51.244;5.724;2022-12-07T14:39:17;10.30;75.10
68922;DHT22;55959;51.244;5.724;2022-12-07T14:41:43;10.20;74.10
68922;DHT22;55959;51.244;5.724;2022-12-07T14:44:22;10.20;73.90
68922;DHT22;55959;51.244;5.724;2022-12-07T14:46:49;10.20;73.90
68922;DHT22;55959;51.244;5.724;2022-12-07T14:49:16;10.20;73.80
68922;DHT22;55959;51.244;5.724;2022-12-07T14:51:43;10.20;73.70
68922;DHT22;55959;51.244;5.724;2022-12-07T14:54:15;10.20;73.50
68922;DHT22;55959;51.244;5.724;2022-12-07T14:56:43;10.20;73.30
68922;DHT22;55959;51.244;5.724;2022-12-07T14:59:10;10.20;73.20
68922;DHT22;55959;51.244;5.724;2022-12-07T15:01:36;10.20;73.10
68922;DHT22;55959;51.244;5.724;2022-12-07T15:04:02;10.10;72.90
68922;DHT22;55959;51.244;5.724;2022-12-07T15:06:28;10.10;72.70
68922;DHT22;55959;51.244;5.724;2022-12-07T15:08:54;10.10;72.70
68922;DHT22;55959;51.244;5.724;2022-12-07T15:11:20;10.10;72.70
68922;DHT22;55959;51.244;5.724;2022-12-07T15:13:46;10.00;72.70
68922;DHT22;55959;51.244;5.724;2022-12-07T15:16:30;10.10;72.70
68922;DHT22;55959;51.244;5.724;2022-12-07T15:18:56;10.00;72.50
68922;DHT22;55959;51.244;5.724;2022-12-07T15:21:22;10.00;72.50
68922;DHT22;55959;51.244;5.724;2022-12-07T15:23:47;10.00;72.50
68922;DHT22;55959;51.244;5.724;2022-12-07T15:26:13;10.00;72.50
68922;DHT22;55959;51.244;5.724;2022-12-07T15:28:40;9.90;72.50
68922;DHT22;55959;51.244;5.724;2022-12-07T15:31:24;10.00;72.70
68922;DHT22;55959;51.244;5.724;2022-12-07T15:33:50;10.00;72.70
68922;DHT22;55959;51.244;5.724;2022-12-07T15:36:34;9.90;72.60
68922;DHT22;55959;51.244;5.724;2022-12-07T15:39:00;9.90;72.70
68922;DHT22;55959;51.244;5.724;2022-12-07T15:41:26;9.90;72.70
68922;DHT22;55959;51.244;5.724;2022-12-07T15:43:52;9.90;72.80
68922;DHT22;55959;51.244;5.724;2022-12-07T15:46:39;9.90;72.70
68922;DHT22;55959;51.244;5.724;2022-12-07T15:49:14;9.90;72.80
68922;DHT22;55959;51.244;5.724;2022-12-07T15:51:42;9.90;72.90
68922;DHT22;55959;51.244;5.724;2022-12-07T15:54:24;9.80;72.80
68922;DHT22;55959;51.244;5.724;2022-12-07T15:56:53;9.80;72.90
68922;DHT22;55959;51.244;5.724;2022-12-07T15:59:20;9.80;72.70
68922;DHT22;55959;51.244;5.724;2022-12-07T16:01:46;9.80;72.80
68922;DHT22;55959;51.244;5.724;2022-12-07T16:04:13;9.80;72.80
68922;DHT22;55959;51.244;5.724;2022-12-07T16:06:38;9.80;72.70
68922;DHT22;55959;51.244;5.724;2022-12-07T16:09:05;9.80;72.70
68922;DHT22;55959;51.244;5.724;2022-12-07T16:11:31;9.70;72.60
68922;DHT22;55959;51.244;5.724;2022-12-07T16:13:57;9.70;73.40
68922;DHT22;55959;51.244;5.724;2022-12-07T16:16:23;9.70;72.50
68922;DHT22;55959;51.244;5.724;2022-12-07T16:18:50;9.60;72.40
68922;DHT22;55959;51.244;5.724;2022-12-07T16:21:16;9.60;72.60
68922;DHT22;55959;51.244;5.724;2022-12-07T16:23:43;9.50;72.60
68922;DHT22;55959;51.244;5.724;2022-12-07T16:26:15;9.60;72.80
68922;DHT22;55959;51.244;5.724;2022-12-07T16:28:43;9.50;72.80
68922;DHT22;55959;51.244;5.724;2022-12-07T16:31:11;9.50;73.00
68922;DHT22;55959;51.244;5.724;2022-12-07T16:33:39;9.50;73.00
68922;DHT22;55959;51.244;5.724;2022-12-07T16:36:07;9.50;73.10
68922;DHT22;55959;51.244;5.724;2022-12-07T16:38:33;9.40;73.20
68922;DHT22;55959;51.244;5.724;2022-12-07T16:40:59;9.40;73.20
68922;DHT22;55959;51.244;5.724;2022-12-07T16:43:25;9.40;73.20
68922;DHT22;55959;51.244;5.724;2022-12-07T16:45:51;9.40;73.30
68922;DHT22;55959;51.244;5.724;2022-12-07T16:48:17;9.40;73.40
68922;DHT22;55959;51.244;5.724;2022-12-07T16:50:43;9.40;73.50
68922;DHT22;55959;51.244;5.724;2022-12-07T16:53:10;9.40;73.60
68922;DHT22;55959;51.244;5.724;2022-12-07T16:55:38;9.40;73.60
68922;DHT22;55959;51.244;5.724;2022-12-07T16:58:08;9.40;73.70
68922;DHT22;55959;51.244;5.724;2022-12-07T17:00:34;9.30;73.60
68922;DHT22;55959;51.244;5.724;2022-12-07T17:03:00;9.30;73.70
68922;DHT22;55959;51.244;5.724;2022-12-07T17:05:37;9.30;73.80
68922;DHT22;55959;51.244;5.724;2022-12-07T17:08:03;9.30;74.00
68922;DHT22;55959;51.244;5.724;2022-12-07T17:10:29;9.30;74.00
68922;DHT22;55959;51.244;5.724;2022-12-07T17:12:55;9.30;74.10
68922;DHT22;55959;51.244;5.724;2022-12-07T17:15:21;9.30;74.20
68922;DHT22;55959;51.244;5.724;2022-12-07T17:17:52;9.20;75.10
68922;DHT22;55959;51.244;5.724;2022-12-07T17:20:20;9.20;74.30
68922;DHT22;55959;51.244;5.724;2022-12-07T17:22:47;9.20;74.30
68922;DHT22;55959;51.244;5.724;2022-12-07T17:25:14;9.20;74.40
68922;DHT22;55959;51.244;5.724;2022-12-07T17:27:40;9.10;74.50
68922;DHT22;55959;51.244;5.724;2022-12-07T17:30:07;9.10;74.50
68922;DHT22;55959;51.244;5.724;2022-12-07T17:32:34;9.10;74.60
68922;DHT22;55959;51.244;5.724;2022-12-07T17:34:59;9.10;74.70
68922;DHT22;55959;51.244;5.724;2022-12-07T17:37:26;9.10;74.80
68922;DHT22;55959;51.244;5.724;2022-12-07T17:39:52;9.10;74.90
68922;DHT22;55959;51.244;5.724;2022-12-07T17:42:26;9.10;74.90
68922;DHT22;55959;51.244;5.724;2022-12-07T17:45:12;9.10;75.00
68922;DHT22;55959;51.244;5.724;2022-12-07T17:47:38;9.10;75.00
68922;DHT22;55959;51.244;5.724;2022-12-07T17:50:05;9.10;75.00
68922;DHT22;55959;51.244;5.724;2022-12-07T17:52:32;9.10;75.20
68922;DHT22;55959;51.244;5.724;2022-12-07T17:55:18;9.10;75.20
68922;DHT22;55959;51.244;5.724;2022-12-07T17:57:43;9.10;75.20
68922;DHT22;55959;51.244;5.724;2022-12-07T18:00:10;9.10;75.20
68922;DHT22;55959;51.244;5.724;2022-12-07T18:02:36;9.00;75.00
68922;DHT22;55959;51.244;5.724;2022-12-07T18:05:02;9.10;75.10
68922;DHT22;55959;51.244;5.724;2022-12-07T18:07:28;9.10;75.00
68922;DHT22;55959;51.244;5.724;2022-12-07T18:09:54;9.00;74.90
68922;DHT22;55959;51.244;5.724;2022-12-07T18:12:20;9.10;74.90
68922;DHT22;55959;51.244;5.724;2022-12-07T18:14:45;9.00;74.80
68922;DHT22;55959;51.244;5.724;2022-12-07T18:17:11;9.00;74.80